TAM3125 SBLO-SBSP
Flight info
| Callsign | TAM3125 |
|---|---|
| Flight time | 0h 52m |
| Altitude | 33000 |
| Route | AKTIT DCT IMTBI DCT UTLOT |
| Aircraft | A319/M-SDE2FGHIM1RWXYZ/LB1 |
Departure
| Time | 2026-04-26 21:42 |
|---|---|
| Airport | Governor José Richa Airport (SBLO) |
Arrival
| Time | 2026-04-26 22:35 |
|---|---|
| Airport | Congonhas–Deputado Freitas Nobre Airport (SBSP) |
| Time | Latitude | Longitude | Altitude | Speed | Heading |
|---|---|---|---|---|---|
| 2026-04-26 20:56 | -23.32905 | -51.13644 | 1870 ft | 0 kts | 19° |
| 2026-04-26 21:31 | -23.32905 | -51.13645 | 1870 ft | 1 kts | 19° |
| 2026-04-26 21:31 | -23.32919 | -51.13649 | 1870 ft | 2 kts | 14° |
| 2026-04-26 21:31 | -23.32933 | -51.13654 | 1870 ft | 2 kts | 16° |
| 2026-04-26 21:31 | -23.32948 | -51.13658 | 1870 ft | 2 kts | 16° |
| 2026-04-26 21:32 | -23.32962 | -51.13662 | 1870 ft | 2 kts | 16° |
| 2026-04-26 21:32 | -23.32977 | -51.13667 | 1870 ft | 2 kts | 16° |
| 2026-04-26 21:32 | -23.32984 | -51.13669 | 1870 ft | 0 kts | 16° |
| 2026-04-26 21:32 | -23.32968 | -51.13655 | 1870 ft | 3 kts | 56° |
| 2026-04-26 21:33 | -23.32964 | -51.13628 | 1870 ft | 3 kts | 103° |
| 2026-04-26 21:33 | -23.32971 | -51.13607 | 1871 ft | 0 kts | 109° |
| 2026-04-26 21:33 | -23.32972 | -51.13607 | 1871 ft | 0 kts | 109° |
| 2026-04-26 21:36 | -23.32972 | -51.13606 | 1871 ft | 0 kts | 109° |
| 2026-04-26 21:36 | -23.32974 | -51.13598 | 1871 ft | 3 kts | 109° |
| 2026-04-26 21:36 | -23.32990 | -51.13552 | 1871 ft | 6 kts | 109° |
| 2026-04-26 21:36 | -23.33006 | -51.13500 | 1871 ft | 7 kts | 109° |
| 2026-04-26 21:37 | -23.33042 | -51.13472 | 1871 ft | 7 kts | 199° |
| 2026-04-26 21:37 | -23.33096 | -51.13493 | 1871 ft | 8 kts | 200° |
| 2026-04-26 21:37 | -23.33154 | -51.13515 | 1871 ft | 9 kts | 199° |
| 2026-04-26 21:37 | -23.33198 | -51.13490 | 1871 ft | 9 kts | 109° |
| 2026-04-26 21:38 | -23.33222 | -51.13417 | 1871 ft | 13 kts | 110° |
| 2026-04-26 21:38 | -23.33264 | -51.13291 | 1871 ft | 20 kts | 110° |
| 2026-04-26 21:38 | -23.33313 | -51.13143 | 1871 ft | 20 kts | 110° |
| 2026-04-26 21:38 | -23.33362 | -51.12997 | 1871 ft | 20 kts | 110° |
| 2026-04-26 21:39 | -23.33412 | -51.12849 | 1871 ft | 20 kts | 110° |
| 2026-04-26 21:39 | -23.33461 | -51.12702 | 1871 ft | 20 kts | 110° |
| 2026-04-26 21:39 | -23.33510 | -51.12556 | 1871 ft | 20 kts | 111° |
| 2026-04-26 21:39 | -23.33558 | -51.12413 | 1871 ft | 19 kts | 110° |
| 2026-04-26 21:40 | -23.33601 | -51.12283 | 1871 ft | 17 kts | 110° |
| 2026-04-26 21:40 | -23.33644 | -51.12159 | 1871 ft | 17 kts | 110° |
| 2026-04-26 21:40 | -23.33687 | -51.12030 | 1870 ft | 18 kts | 110° |
| 2026-04-26 21:40 | -23.33722 | -51.11939 | 1870 ft | 7 kts | 148° |
| 2026-04-26 21:41 | -23.33733 | -51.11922 | 1870 ft | 2 kts | 64° |
| 2026-04-26 21:41 | -23.33726 | -51.11920 | 1870 ft | 1 kts | 342° |
| 2026-04-26 21:41 | -23.33722 | -51.11926 | 1870 ft | 0 kts | 290° |
| 2026-04-26 21:41 | -23.33717 | -51.11940 | 1870 ft | 15 kts | 290° |
| 2026-04-26 21:42 | -23.33589 | -51.12325 | 1871 ft | 90 kts | 290° |
| 2026-04-26 21:42 | -23.33299 | -51.13189 | 1872 ft | 150 kts | 289° |
| 2026-04-26 21:42 | -23.32912 | -51.14318 | 2295 ft | 161 kts | 288° |
| 2026-04-26 21:42 | -23.32533 | -51.15449 | 2788 ft | 165 kts | 288° |
| 2026-04-26 21:43 | -23.32123 | -51.16690 | 3097 ft | 182 kts | 289° |
| 2026-04-26 21:43 | -23.31671 | -51.18042 | 3402 ft | 201 kts | 290° |
| 2026-04-26 21:43 | -23.31168 | -51.19533 | 3766 ft | 221 kts | 290° |
| 2026-04-26 21:43 | -23.30500 | -51.21096 | 4176 ft | 239 kts | 307° |
| 2026-04-26 21:44 | -23.29171 | -51.22257 | 4696 ft | 255 kts | 335° |
| 2026-04-26 21:44 | -23.27419 | -51.22611 | 5465 ft | 262 kts | 2° |
| 2026-04-26 21:44 | -23.25695 | -51.22026 | 6277 ft | 269 kts | 28° |
| 2026-04-26 21:44 | -23.24155 | -51.20842 | 7095 ft | 272 kts | 32° |
| 2026-04-26 21:45 | -23.22630 | -51.19641 | 7861 ft | 276 kts | 32° |
| 2026-04-26 21:45 | -23.21080 | -51.18427 | 8643 ft | 279 kts | 31° |
| 2026-04-26 21:45 | -23.19526 | -51.17153 | 9369 ft | 286 kts | 39° |
| 2026-04-26 21:45 | -23.18382 | -51.15278 | 9893 ft | 307 kts | 65° |
| 2026-04-26 21:46 | -23.17736 | -51.13064 | 10477 ft | 318 kts | 71° |
| 2026-04-26 21:46 | -23.17139 | -51.10696 | 10889 ft | 333 kts | 72° |
| 2026-04-26 21:46 | -23.16488 | -51.08232 | 11509 ft | 339 kts | 71° |
| 2026-04-26 21:46 | -23.15806 | -51.05809 | 12167 ft | 343 kts | 70° |
| 2026-04-26 21:47 | -23.15080 | -51.03338 | 12752 ft | 347 kts | 70° |
| 2026-04-26 21:47 | -23.14321 | -51.00830 | 13360 ft | 351 kts | 69° |
| 2026-04-26 21:47 | -23.13545 | -50.98301 | 13973 ft | 354 kts | 69° |
| 2026-04-26 21:47 | -23.12757 | -50.95760 | 14542 ft | 359 kts | 69° |
| 2026-04-26 21:48 | -23.11958 | -50.93198 | 15096 ft | 363 kts | 69° |
| 2026-04-26 21:48 | -23.11142 | -50.90592 | 15645 ft | 367 kts | 69° |
| 2026-04-26 21:48 | -23.10325 | -50.87989 | 16178 ft | 371 kts | 69° |
| 2026-04-26 21:48 | -23.09486 | -50.85322 | 16711 ft | 375 kts | 69° |
| 2026-04-26 21:49 | -23.08640 | -50.82634 | 17255 ft | 378 kts | 68° |
| 2026-04-26 21:49 | -23.07785 | -50.79921 | 17764 ft | 382 kts | 69° |
| 2026-04-26 21:49 | -23.06920 | -50.77176 | 18272 ft | 386 kts | 68° |
| 2026-04-26 21:49 | -23.06059 | -50.74445 | 18756 ft | 390 kts | 68° |
| 2026-04-26 21:50 | -23.05178 | -50.71655 | 19243 ft | 393 kts | 68° |
| 2026-04-26 21:50 | -23.04577 | -50.69754 | 19569 ft | 396 kts | 68° |
| 2026-04-26 21:50 | -23.03386 | -50.65987 | 20192 ft | 400 kts | 68° |
| 2026-04-26 21:50 | -23.02492 | -50.63161 | 20648 ft | 403 kts | 68° |
| 2026-04-26 21:51 | -23.01576 | -50.60266 | 21080 ft | 406 kts | 68° |
| 2026-04-26 21:51 | -23.00659 | -50.57370 | 21510 ft | 409 kts | 68° |
| 2026-04-26 21:51 | -22.99732 | -50.54446 | 21936 ft | 411 kts | 68° |
| 2026-04-26 21:51 | -22.98801 | -50.51509 | 22354 ft | 414 kts | 68° |
| 2026-04-26 21:52 | -22.97857 | -50.48538 | 22765 ft | 417 kts | 68° |
| 2026-04-26 21:52 | -22.96906 | -50.45551 | 23190 ft | 420 kts | 68° |
| 2026-04-26 21:52 | -22.95959 | -50.42573 | 23632 ft | 422 kts | 68° |
| 2026-04-26 21:52 | -22.95004 | -50.39576 | 24048 ft | 424 kts | 68° |
| 2026-04-26 21:53 | -22.94037 | -50.36541 | 24463 ft | 427 kts | 68° |
| 2026-04-26 21:53 | -22.93065 | -50.33493 | 24878 ft | 429 kts | 68° |
| 2026-04-26 21:53 | -22.92088 | -50.30430 | 25274 ft | 431 kts | 68° |
| 2026-04-26 21:53 | -22.91106 | -50.27348 | 25670 ft | 433 kts | 68° |
| 2026-04-26 21:54 | -22.90123 | -50.24266 | 26044 ft | 436 kts | 67° |
| 2026-04-26 21:54 | -22.89128 | -50.21153 | 26421 ft | 439 kts | 67° |
| 2026-04-26 21:54 | -22.88139 | -50.18061 | 26797 ft | 441 kts | 68° |
| 2026-04-26 21:54 | -22.87129 | -50.14905 | 27185 ft | 443 kts | 68° |
| 2026-04-26 21:55 | -22.86122 | -50.11764 | 27565 ft | 445 kts | 68° |
| 2026-04-26 21:55 | -22.85100 | -50.08577 | 27932 ft | 448 kts | 68° |
| 2026-04-26 21:55 | -22.84074 | -50.05378 | 28295 ft | 450 kts | 68° |
| 2026-04-26 21:55 | -22.83049 | -50.02185 | 28660 ft | 453 kts | 68° |
| 2026-04-26 21:56 | -22.82008 | -49.98948 | 29030 ft | 455 kts | 68° |
| 2026-04-26 21:56 | -22.80975 | -49.95732 | 29416 ft | 457 kts | 68° |
| 2026-04-26 21:56 | -22.79932 | -49.92491 | 29802 ft | 458 kts | 68° |
| 2026-04-26 21:56 | -22.78875 | -49.89204 | 30181 ft | 460 kts | 68° |
| 2026-04-26 21:57 | -22.77830 | -49.85962 | 30544 ft | 462 kts | 68° |
| 2026-04-26 21:57 | -22.76767 | -49.82664 | 30901 ft | 464 kts | 68° |
| 2026-04-26 21:57 | -22.75707 | -49.79380 | 31233 ft | 466 kts | 68° |
| 2026-04-26 21:57 | -22.74628 | -49.76041 | 31563 ft | 468 kts | 68° |
| 2026-04-26 21:58 | -22.73553 | -49.72716 | 31948 ft | 469 kts | 67° |
| 2026-04-26 21:58 | -22.72484 | -49.69410 | 32426 ft | 467 kts | 67° |
| 2026-04-26 21:58 | -22.71425 | -49.66132 | 32892 ft | 465 kts | 67° |
| 2026-04-26 21:58 | -22.70348 | -49.62807 | 33349 ft | 464 kts | 67° |
| 2026-04-26 21:59 | -22.69283 | -49.59524 | 33746 ft | 464 kts | 67° |
| 2026-04-26 21:59 | -22.68214 | -49.56233 | 34109 ft | 465 kts | 67° |
| 2026-04-26 21:59 | -22.67141 | -49.52929 | 34458 ft | 466 kts | 67° |
| 2026-04-26 21:59 | -22.66078 | -49.49661 | 34792 ft | 467 kts | 67° |
| 2026-04-26 22:00 | -22.64991 | -49.46321 | 34988 ft | 468 kts | 67° |
| 2026-04-26 22:00 | -22.63924 | -49.43043 | 34993 ft | 468 kts | 67° |
| 2026-04-26 22:00 | -22.61753 | -49.36375 | 34996 ft | 468 kts | 67° |
| 2026-04-26 22:01 | -22.59596 | -49.29769 | 34995 ft | 468 kts | 66° |
| 2026-04-26 22:01 | -22.57650 | -49.23031 | 34995 ft | 470 kts | 72° |
| 2026-04-26 22:02 | -22.56599 | -49.17270 | 34996 ft | 472 kts | 78° |
| 2026-04-26 22:02 | -22.55908 | -49.09026 | 35001 ft | 474 kts | 83° |
| 2026-04-26 22:03 | -22.55453 | -49.01909 | 35007 ft | 474 kts | 83° |
| 2026-04-26 22:03 | -22.54980 | -48.94820 | 35011 ft | 474 kts | 83° |
| 2026-04-26 22:04 | -22.54497 | -48.87756 | 35009 ft | 474 kts | 83° |
| 2026-04-26 22:04 | -22.54006 | -48.80648 | 35008 ft | 475 kts | 83° |
| 2026-04-26 22:05 | -22.53512 | -48.73566 | 35004 ft | 474 kts | 83° |
| 2026-04-26 22:05 | -22.53015 | -48.66482 | 34999 ft | 474 kts | 83° |
| 2026-04-26 22:06 | -22.52516 | -48.59422 | 34995 ft | 474 kts | 83° |
| 2026-04-26 22:06 | -22.52013 | -48.52335 | 34994 ft | 474 kts | 83° |
| 2026-04-26 22:07 | -22.51505 | -48.45224 | 34993 ft | 474 kts | 83° |
| 2026-04-26 22:07 | -22.50995 | -48.38128 | 34992 ft | 474 kts | 83° |
| 2026-04-26 22:08 | -22.50483 | -48.31059 | 35000 ft | 474 kts | 82° |
| 2026-04-26 22:08 | -22.49968 | -48.23998 | 35002 ft | 474 kts | 82° |
| 2026-04-26 22:09 | -22.49439 | -48.16810 | 34638 ft | 490 kts | 82° |
| 2026-04-26 22:09 | -22.49169 | -48.13165 | 34348 ft | 492 kts | 82° |
| 2026-04-26 22:09 | -22.48899 | -48.09474 | 34058 ft | 492 kts | 82° |
| 2026-04-26 22:10 | -22.48631 | -48.05814 | 33774 ft | 491 kts | 82° |
| 2026-04-26 22:10 | -22.48356 | -48.02114 | 33437 ft | 489 kts | 83° |
| 2026-04-26 22:10 | -22.48087 | -47.98493 | 32927 ft | 486 kts | 82° |
| 2026-04-26 22:10 | -22.47959 | -47.94881 | 32331 ft | 487 kts | 91° |
| 2026-04-26 22:11 | -22.48388 | -47.91233 | 31633 ft | 490 kts | 102° |
| 2026-04-26 22:11 | -22.49389 | -47.87768 | 30903 ft | 491 kts | 113° |
| 2026-04-26 22:11 | -22.50979 | -47.84473 | 30306 ft | 487 kts | 124° |
| 2026-04-26 22:11 | -22.52978 | -47.81562 | 29803 ft | 481 kts | 131° |
| 2026-04-26 22:12 | -22.55077 | -47.78812 | 29287 ft | 477 kts | 132° |
| 2026-04-26 22:12 | -22.57191 | -47.76085 | 28767 ft | 473 kts | 132° |
| 2026-04-26 22:12 | -22.59305 | -47.73336 | 28233 ft | 470 kts | 131° |
| 2026-04-26 22:12 | -22.61354 | -47.70646 | 27709 ft | 466 kts | 131° |
| 2026-04-26 22:13 | -22.63398 | -47.67939 | 27183 ft | 463 kts | 131° |
| 2026-04-26 22:13 | -22.65430 | -47.65236 | 26662 ft | 459 kts | 131° |
| 2026-04-26 22:13 | -22.67434 | -47.62563 | 26147 ft | 456 kts | 131° |
| 2026-04-26 22:13 | -22.69413 | -47.59920 | 25632 ft | 452 kts | 131° |
| 2026-04-26 22:14 | -22.71376 | -47.57295 | 25125 ft | 449 kts | 131° |
| 2026-04-26 22:14 | -22.73322 | -47.54693 | 24617 ft | 446 kts | 131° |
| 2026-04-26 22:14 | -22.75267 | -47.52092 | 24116 ft | 443 kts | 131° |
| 2026-04-26 22:14 | -22.77191 | -47.49518 | 23623 ft | 439 kts | 131° |
| 2026-04-26 22:15 | -22.79124 | -47.46932 | 23140 ft | 436 kts | 131° |
| 2026-04-26 22:15 | -22.81007 | -47.44411 | 22663 ft | 434 kts | 131° |
| 2026-04-26 22:15 | -22.82898 | -47.41877 | 22179 ft | 431 kts | 131° |
| 2026-04-26 22:15 | -22.84789 | -47.39341 | 21717 ft | 430 kts | 131° |
| 2026-04-26 22:16 | -22.86636 | -47.36863 | 21246 ft | 428 kts | 131° |
| 2026-04-26 22:16 | -22.88505 | -47.34354 | 20764 ft | 427 kts | 130° |
| 2026-04-26 22:16 | -22.90365 | -47.31853 | 20274 ft | 425 kts | 130° |
| 2026-04-26 22:16 | -22.92226 | -47.29352 | 19776 ft | 423 kts | 130° |
| 2026-04-26 22:17 | -22.94066 | -47.26875 | 19282 ft | 421 kts | 130° |
| 2026-04-26 22:17 | -22.95900 | -47.24406 | 18805 ft | 419 kts | 130° |
| 2026-04-26 22:17 | -22.97717 | -47.21959 | 18311 ft | 417 kts | 130° |
| 2026-04-26 22:17 | -22.99521 | -47.19529 | 17912 ft | 412 kts | 130° |
| 2026-04-26 22:18 | -23.01354 | -47.17149 | 17529 ft | 406 kts | 136° |
| 2026-04-26 22:18 | -23.03609 | -47.15417 | 16962 ft | 398 kts | 160° |
| 2026-04-26 22:18 | -23.06221 | -47.14635 | 16900 ft | 377 kts | 172° |
| 2026-04-26 22:18 | -23.08740 | -47.14112 | 16924 ft | 364 kts | 173° |
| 2026-04-26 22:19 | -23.11238 | -47.13601 | 16960 ft | 363 kts | 173° |
| 2026-04-26 22:19 | -23.13722 | -47.13082 | 16980 ft | 363 kts | 172° |
| 2026-04-26 22:19 | -23.16179 | -47.12555 | 17007 ft | 363 kts | 172° |
| 2026-04-26 22:19 | -23.18686 | -47.12009 | 17030 ft | 363 kts | 172° |
| 2026-04-26 22:20 | -23.21150 | -47.11467 | 17038 ft | 364 kts | 172° |
| 2026-04-26 22:20 | -23.22825 | -47.11098 | 17035 ft | 364 kts | 172° |
| 2026-04-26 22:20 | -23.26120 | -47.10371 | 16512 ft | 368 kts | 172° |
| 2026-04-26 22:20 | -23.28639 | -47.09822 | 15990 ft | 370 kts | 172° |
| 2026-04-26 22:21 | -23.31185 | -47.09264 | 15482 ft | 372 kts | 172° |
| 2026-04-26 22:21 | -23.33732 | -47.08708 | 14985 ft | 372 kts | 172° |
| 2026-04-26 22:21 | -23.36267 | -47.08152 | 14495 ft | 373 kts | 171° |
| 2026-04-26 22:21 | -23.38821 | -47.07592 | 14012 ft | 372 kts | 171° |
| 2026-04-26 22:22 | -23.41332 | -47.06930 | 13511 ft | 375 kts | 161° |
| 2026-04-26 22:22 | -23.43520 | -47.05396 | 13013 ft | 379 kts | 135° |
| 2026-04-26 22:22 | -23.45086 | -47.03086 | 12580 ft | 378 kts | 122° |
| 2026-04-26 22:22 | -23.46385 | -47.00670 | 12126 ft | 370 kts | 120° |
| 2026-04-26 22:23 | -23.47656 | -46.98266 | 11654 ft | 361 kts | 121° |
| 2026-04-26 22:23 | -23.48918 | -46.95956 | 11187 ft | 353 kts | 122° |
| 2026-04-26 22:23 | -23.50202 | -46.93683 | 10724 ft | 350 kts | 122° |
| 2026-04-26 22:23 | -23.51479 | -46.91464 | 10388 ft | 343 kts | 123° |
| 2026-04-26 22:24 | -23.52728 | -46.89315 | 10131 ft | 330 kts | 123° |
| 2026-04-26 22:24 | -23.53940 | -46.87236 | 9917 ft | 320 kts | 123° |
| 2026-04-26 22:24 | -23.55112 | -46.85225 | 9529 ft | 310 kts | 123° |
| 2026-04-26 22:24 | -23.56340 | -46.83311 | 9151 ft | 309 kts | 133° |
| 2026-04-26 22:25 | -23.57918 | -46.81778 | 9004 ft | 298 kts | 148° |
| 2026-04-26 22:25 | -23.59626 | -46.80561 | 8998 ft | 290 kts | 150° |
| 2026-04-26 22:25 | -23.61340 | -46.79409 | 8996 ft | 286 kts | 151° |
| 2026-04-26 22:25 | -23.63036 | -46.78267 | 8995 ft | 285 kts | 151° |
| 2026-04-26 22:26 | -23.64707 | -46.77127 | 8998 ft | 285 kts | 150° |
| 2026-04-26 22:26 | -23.66447 | -46.75932 | 9022 ft | 301 kts | 150° |
| 2026-04-26 22:26 | -23.68225 | -46.74705 | 9030 ft | 305 kts | 150° |
| 2026-04-26 22:26 | -23.70026 | -46.73456 | 9034 ft | 306 kts | 150° |
| 2026-04-26 22:27 | -23.71834 | -46.72199 | 9030 ft | 306 kts | 150° |
| 2026-04-26 22:27 | -23.73618 | -46.70961 | 9001 ft | 306 kts | 150° |
| 2026-04-26 22:27 | -23.75435 | -46.69700 | 8604 ft | 310 kts | 150° |
| 2026-04-26 22:27 | -23.77221 | -46.68459 | 8190 ft | 302 kts | 150° |
| 2026-04-26 22:28 | -23.78993 | -46.67228 | 7794 ft | 297 kts | 150° |
| 2026-04-26 22:28 | -23.80714 | -46.66031 | 7417 ft | 293 kts | 150° |
| 2026-04-26 22:28 | -23.82417 | -46.64836 | 7025 ft | 287 kts | 147° |
| 2026-04-26 22:28 | -23.83757 | -46.63284 | 6612 ft | 281 kts | 115° |
| 2026-04-26 22:29 | -23.84116 | -46.61276 | 6266 ft | 266 kts | 80° |
| 2026-04-26 22:29 | -23.83557 | -46.59476 | 6157 ft | 238 kts | 52° |
| 2026-04-26 22:29 | -23.82596 | -46.58134 | 6142 ft | 211 kts | 45° |
| 2026-04-26 22:29 | -23.81677 | -46.56964 | 6095 ft | 197 kts | 44° |
| 2026-04-26 22:30 | -23.80796 | -46.55834 | 6037 ft | 195 kts | 45° |
| 2026-04-26 22:30 | -23.79790 | -46.54914 | 5916 ft | 182 kts | 16° |
| 2026-04-26 22:30 | -23.78559 | -46.54785 | 5835 ft | 176 kts | 344° |
| 2026-04-26 22:30 | -23.77464 | -46.55336 | 5733 ft | 173 kts | 325° |
| 2026-04-26 22:31 | -23.76466 | -46.56044 | 5612 ft | 168 kts | 325° |
| 2026-04-26 22:31 | -23.75503 | -46.56727 | 5469 ft | 162 kts | 325° |
| 2026-04-26 22:31 | -23.74558 | -46.57392 | 5273 ft | 164 kts | 326° |
| 2026-04-26 22:31 | -23.73601 | -46.58061 | 4981 ft | 164 kts | 326° |
| 2026-04-26 22:32 | -23.72647 | -46.58727 | 4752 ft | 160 kts | 326° |
| 2026-04-26 22:32 | -23.71732 | -46.59360 | 4529 ft | 150 kts | 326° |
| 2026-04-26 22:32 | -23.70860 | -46.59964 | 4358 ft | 147 kts | 326° |
| 2026-04-26 22:32 | -23.70017 | -46.60551 | 4164 ft | 140 kts | 327° |
| 2026-04-26 22:33 | -23.69194 | -46.61118 | 3972 ft | 138 kts | 326° |
| 2026-04-26 22:33 | -23.67590 | -46.62231 | 3614 ft | 137 kts | 326° |
| 2026-04-26 22:33 | -23.66787 | -46.62798 | 3414 ft | 136 kts | 326° |
| 2026-04-26 22:34 | -23.65987 | -46.63356 | 3230 ft | 136 kts | 327° |
| 2026-04-26 22:34 | -23.65183 | -46.63903 | 3047 ft | 135 kts | 326° |
| 2026-04-26 22:34 | -23.64392 | -46.64457 | 2853 ft | 135 kts | 327° |
| 2026-04-26 22:34 | -23.63607 | -46.65000 | 2682 ft | 133 kts | 327° |
| 2026-04-26 22:35 | -23.62852 | -46.65519 | 2608 ft | 106 kts | 329° |
| 2026-04-26 22:35 | -23.62429 | -46.65813 | 2593 ft | 46 kts | 327° |
| 2026-04-26 22:35 | -23.62281 | -46.65915 | 2588 ft | 18 kts | 327° |
| 2026-04-26 22:35 | -23.62208 | -46.65970 | 2585 ft | 10 kts | 311° |
| 2026-04-26 22:36 | -23.62218 | -46.66033 | 2584 ft | 7 kts | 213° |
| 2026-04-26 22:36 | -23.62263 | -46.66032 | 2585 ft | 5 kts | 154° |
| 2026-04-26 22:36 | -23.62289 | -46.66016 | 2586 ft | 2 kts | 149° |
| 2026-04-26 22:36 | -23.62306 | -46.66005 | 2586 ft | 4 kts | 148° |
| 2026-04-26 22:37 | -23.62329 | -46.65989 | 2587 ft | 3 kts | 148° |
| 2026-04-26 22:37 | -23.62348 | -46.65977 | 2588 ft | 4 kts | 149° |
| 2026-04-26 22:37 | -23.62383 | -46.65952 | 2589 ft | 6 kts | 147° |
| 2026-04-26 22:37 | -23.62411 | -46.65933 | 2590 ft | 3 kts | 147° |
| 2026-04-26 22:38 | -23.62433 | -46.65918 | 2591 ft | 4 kts | 147° |
| 2026-04-26 22:38 | -23.62469 | -46.65893 | 2592 ft | 7 kts | 147° |
| 2026-04-26 22:38 | -23.62516 | -46.65860 | 2594 ft | 4 kts | 147° |
| 2026-04-26 22:38 | -23.62543 | -46.65870 | 2593 ft | 7 kts | 240° |
| 2026-04-26 22:39 | -23.62567 | -46.65913 | 2592 ft | 2 kts | 238° |
| 2026-04-26 22:39 | -23.62573 | -46.65923 | 2592 ft | 0 kts | 237° |